Big Bear Station Historical Data
Daily Summary for July 31, 2017 Units:  English    Metric   Both
« Previous Day
Next Day »
Daily Weekly Monthly Yearly Custom
  High: Low: Average:
Temperature: 90.1 °F 54.1 °F 71.8 °F
Dew Point: 49.2 °F 37.1 °F 42.6 °F
Humidity: 72 % 19 % 39 %
Wind Speed: 6.8 mph 0.0 mph 1.7 mph
Wind Gust: -999.0 mph - -
Wind:- - WSW
Pressure: 30.35 in 30.28 in -
Precipitation: 0.00 in    
Historical Graphs
 
 
Tabular Data for July 31, 2017
Time Temperature Dew Point Pressure Wind Wind Speed Wind Gust Humidity Rainfall Rate (Hourly)
00:10 61.3 °F 40.3 °F 30.35 in Calm   -999.0 mph 46 % 0 in
00:26 60.8 °F 39.3 °F 30.34 in South 3.2 mph -999.0 mph 45 % 0 in
00:41 60.6 °F 39.1 °F 30.34 in South 2.2 mph -999.0 mph 45 % 0 in
00:56 60.1 °F 38.7 °F 30.34 in Calm   -999.0 mph 45 % 0 in
01:11 59.5 °F 38.1 °F 30.34 in SSE 1.1 mph -999.0 mph 45 % 0 in
01:26 59.7 °F 38.3 °F 30.34 in SSE 2.7 mph -999.0 mph 45 % 0 in
01:42 59.5 °F 38.1 °F 30.34 in SSE 2.2 mph -999.0 mph 45 % 0 in
01:57 59.9 °F 37.9 °F 30.33 in Calm   -999.0 mph 44 % 0 in
02:12 59.4 °F 37.5 °F 30.33 in South 1.7 mph -999.0 mph 44 % 0 in
02:27 59.0 °F 37.7 °F 30.33 in South 2.2 mph -999.0 mph 45 % 0 in
02:42 58.1 °F 37.4 °F 30.32 in South 1.1 mph -999.0 mph 46 % 0 in
02:58 57.9 °F 37.2 °F 30.32 in Calm   -999.0 mph 46 % 0 in
03:13 57.2 °F 37.1 °F 30.32 in Calm   -999.0 mph 47 % 0 in
03:28 57.0 °F 38.0 °F 30.32 in Calm   -999.0 mph 49 % 0 in
03:43 56.5 °F 40.5 °F 30.32 in Calm   -999.0 mph 55 % 0 in
03:58 56.1 °F 40.2 °F 30.32 in Calm   -999.0 mph 55 % 0 in
04:14 55.9 °F 38.5 °F 30.32 in Calm   -999.0 mph 52 % 0 in
04:29 55.6 °F 37.8 °F 30.32 in Calm   -999.0 mph 51 % 0 in
04:44 55.2 °F 39.3 °F 30.32 in Calm   -999.0 mph 55 % 0 in
04:59 55.0 °F 38.7 °F 30.32 in Calm   -999.0 mph 54 % 0 in
05:15 55.0 °F 39.6 °F 30.32 in Calm   -999.0 mph 56 % 0 in
05:30 54.5 °F 39.1 °F 30.33 in SSE 1.7 mph -999.0 mph 56 % 0 in
05:45 54.1 °F 42.2 °F 30.33 in Calm   -999.0 mph 64 % 0 in
06:00 54.1 °F 43.4 °F 30.33 in Calm   -999.0 mph 67 % 0 in
06:15 54.5 °F 44.9 °F 30.33 in Calm   -999.0 mph 70 % 0 in
06:31 54.5 °F 45.3 °F 30.34 in Calm   -999.0 mph 71 % 0 in
06:46 54.1 °F 44.9 °F 30.33 in Calm   -999.0 mph 71 % 0 in
07:01 54.7 °F 42.4 °F 30.34 in Calm   -999.0 mph 63 % 0 in
07:16 55.0 °F 42.6 °F 30.34 in Calm   -999.0 mph 63 % 0 in
07:31 56.5 °F 45.7 °F 30.34 in Calm   -999.0 mph 67 % 0 in
07:47 56.3 °F 47.0 °F 30.34 in Calm   -999.0 mph 71 % 0 in
08:02 57.7 °F 48.7 °F 30.34 in Calm   -999.0 mph 72 % 0 in
08:17 59.7 °F 47.9 °F 30.34 in Calm   -999.0 mph 65 % 0 in
08:32 61.2 °F 47.6 °F 30.34 in Calm   -999.0 mph 61 % 0 in
08:47 63.9 °F 46.9 °F 30.34 in NNW 2.7 mph -999.0 mph 54 % 0 in
09:03 66.0 °F 47.9 °F 30.34 in NNW 2.7 mph -999.0 mph 52 % 0 in
09:18 68.0 °F 49.2 °F 30.34 in NW 1.1 mph -999.0 mph 51 % 0 in
09:33 70.5 °F 46.3 °F 30.34 in Calm   -999.0 mph 42 % 0 in
09:48 75.7 °F 39.4 °F 30.34 in NNW 3.7 mph -999.0 mph 27 % 0 in
10:04 77.2 °F 41.6 °F 30.34 in Calm   -999.0 mph 28 % 0 in
10:19 78.6 °F 40.9 °F 30.34 in NNW 3.7 mph -999.0 mph 26 % 0 in
10:35 79.3 °F 42.4 °F 30.34 in WNW 3.7 mph -999.0 mph 27 % 0 in
10:50 80.2 °F 42.2 °F 30.34 in NNW 2.2 mph -999.0 mph 26 % 0 in
11:05 81.1 °F 44.0 °F 30.34 in NNW 3.7 mph -999.0 mph 27 % 0 in
11:20 82.0 °F 43.7 °F 30.34 in NNW 2.7 mph -999.0 mph 26 % 0 in
11:36 83.7 °F 45.2 °F 30.34 in NW 4.7 mph -999.0 mph 26 % 0 in
11:51 83.7 °F 40.8 °F 30.34 in NNW 4.2 mph -999.0 mph 22 % 0 in
12:06 86.2 °F 42.9 °F 30.33 in NNW 2.7 mph -999.0 mph 22 % 0 in
12:22 86.7 °F 42.1 °F 30.33 in NW 3.7 mph -999.0 mph 21 % 0 in
12:37 87.3 °F 45.0 °F 30.33 in NNE 3.7 mph -999.0 mph 23 % 0 in
12:53 86.5 °F 43.2 °F 30.32 in North 3.7 mph -999.0 mph 22 % 0 in
13:08 86.9 °F 43.5 °F 30.32 in NNE 3.7 mph -999.0 mph 22 % 0 in
13:23 88.7 °F 41.2 °F 30.32 in North 4.7 mph -999.0 mph 19 % 0 in
13:39 88.5 °F 42.3 °F 30.32 in NW 6.3 mph -999.0 mph 20 % 0 in
13:54 87.8 °F 40.4 °F 30.32 in NNE 4.2 mph -999.0 mph 19 % 0 in
14:09 86.5 °F 43.2 °F 30.31 in NW 6.8 mph -999.0 mph 22 % 0 in
14:24 88.9 °F 41.3 °F 30.31 in NE 2.2 mph -999.0 mph 19 % 0 in
14:39 84.9 °F 39.4 °F 30.31 in WNW 1.7 mph -999.0 mph 20 % 0 in
14:55 88.2 °F 43.4 °F 30.30 in WNW 3.7 mph -999.0 mph 21 % 0 in
15:10 85.5 °F 41.1 °F 30.30 in NW 2.2 mph -999.0 mph 21 % 0 in
15:25 83.7 °F 42.0 °F 30.30 in NNW 5.8 mph -999.0 mph 23 % 0 in
15:41 83.8 °F 40.9 °F 30.30 in ESE 2.7 mph -999.0 mph 22 % 0 in
15:56 84.7 °F 41.7 °F 30.30 in ENE 2.7 mph -999.0 mph 22 % 0 in
16:11 83.7 °F 42.0 °F 30.30 in NW 2.7 mph -999.0 mph 23 % 0 in
16:26 82.6 °F 41.1 °F 30.30 in Calm   -999.0 mph 23 % 0 in
16:42 84.2 °F 41.2 °F 30.30 in NNW 4.7 mph -999.0 mph 22 % 0 in
16:57 85.6 °F 42.4 °F 30.29 in WNW 4.2 mph -999.0 mph 22 % 0 in
17:12 87.6 °F 42.9 °F 30.29 in West 6.8 mph -999.0 mph 21 % 0 in
17:27 90.1 °F 43.6 °F 30.29 in SSW 2.7 mph -999.0 mph 20 % 0 in
17:43 89.1 °F 44.1 °F 30.29 in North 2.7 mph -999.0 mph 21 % 0 in
17:58 88.0 °F 44.4 °F 30.29 in NW 3.2 mph -999.0 mph 22 % 0 in
18:13 87.6 °F 42.9 °F 30.28 in East 1.7 mph -999.0 mph 21 % 0 in
18:28 87.4 °F 42.7 °F 30.28 in Calm   -999.0 mph 21 % 0 in
18:43 87.3 °F 43.8 °F 30.29 in NW 2.2 mph -999.0 mph 22 % 0 in
18:59 85.1 °F 42.0 °F 30.28 in SW 2.2 mph -999.0 mph 22 % 0 in
19:14 84.0 °F 43.3 °F 30.28 in WNW 2.7 mph -999.0 mph 24 % 0 in
19:29 79.9 °F 48.2 °F 30.29 in West 1.7 mph -999.0 mph 33 % 0 in
19:44 77.5 °F 46.1 °F 30.29 in WNW 1.7 mph -999.0 mph 33 % 0 in
19:59 76.3 °F 47.4 °F 30.29 in Calm   -999.0 mph 36 % 0 in
20:15 74.8 °F 46.8 °F 30.30 in Calm   -999.0 mph 37 % 0 in
20:30 73.9 °F 46.0 °F 30.30 in Calm   -999.0 mph 37 % 0 in
20:45 73.2 °F 46.8 °F 30.30 in Calm   -999.0 mph 39 % 0 in
21:00 72.7 °F 46.3 °F 30.30 in Calm   -999.0 mph 39 % 0 in
21:15 72.1 °F 43.7 °F 30.30 in Calm   -999.0 mph 36 % 0 in
21:31 71.4 °F 43.1 °F 30.31 in Calm   -999.0 mph 36 % 0 in
21:46 70.3 °F 44.2 °F 30.31 in Calm   -999.0 mph 39 % 0 in
22:01 70.0 °F 43.9 °F 30.31 in Calm   -999.0 mph 39 % 0 in
22:16 69.8 °F 45.0 °F 30.31 in SSE 1.1 mph -999.0 mph 41 % 0 in
22:32 70.7 °F 45.2 °F 30.31 in SE 3.2 mph -999.0 mph 40 % 0 in
22:47 71.2 °F 45.0 °F 30.30 in South 2.2 mph -999.0 mph 39 % 0 in
23:02 70.9 °F 44.7 °F 30.30 in Calm   -999.0 mph 39 % 0 in
23:17 70.5 °F 43.7 °F 30.30 in Calm   -999.0 mph 38 % 0 in
23:33 70.2 °F 44.1 °F 30.30 in Calm   -999.0 mph 39 % 0 in
23:48 70.0 °F 46.5 °F 30.30 in Calm   -999.0 mph 43 % 0 in
Big Bear CA Weather
Compliments of Weather Underground - 1.5 mb